Time;durP1;ratioP1;P1;durP2;ratioP2;P2;SDS_P1;SDS_P2;PMS_P1;PMS_P2;Temp;Humidity;BMP_temperature;BMP_pressure;BME280_temperature;BME280_humidity;BME280_pressure;Samples;Min_cycle;Max_cycle;Signal;HPM_P1;HPM_P2
2023/01/06 00:01:34;;;;;;;3.03;0.93;;;16.40;73.30;;;;;;6245437;23;19999;-80
2023/01/06 00:04:01;;;;;;;1.83;0.63;;;16.50;94.40;;;;;;6245319;23;20007;-80
2023/01/06 00:06:29;;;;;;;2.28;0.88;;;16.40;75.90;;;;;;6245418;23;20043;-80
2023/01/06 00:08:58;;;;;;;0.93;0.55;;;16.40;73.30;;;;;;6245564;23;19996;-81
2023/01/06 00:11:25;;;;;;;1.35;0.60;;;;;;;;;;6245712;23;20000;-80
2023/01/06 00:13:51;;;;;;;1.55;0.55;;;16.50;97.90;;;;;;6245326;23;20000;-81
2023/01/06 00:16:19;;;;;;;2.78;0.90;;;16.50;73.20;;;;;;6245209;23;20542;-80
2023/01/06 00:18:45;;;;;;;3.10;0.50;;;;;;;;;;6245612;23;20073;-81
2023/01/06 00:21:14;;;;;;;1.00;0.50;;;16.50;75.10;;;;;;6245221;23;20087;-80
2023/01/06 00:23:40;;;;;;;0.80;0.60;;;;;;;;;;6245354;23;20008;-80
2023/01/06 00:26:08;;;;;;;1.50;0.60;;;16.50;98.00;;;;;;6245092;23;19996;-80
2023/01/06 00:28:34;;;;;;;2.25;0.95;;;16.50;98.00;;;;;;6245705;23;20328;-80
2023/01/06 00:31:13;;;;;;;1.25;0.50;;;16.50;98.10;;;;;;6245529;23;20384;-80
2023/01/06 00:33:40;;;;;;;1.40;0.70;;;16.40;98.00;;;;;;6245581;23;20000;-80
2023/01/06 00:36:07;;;;;;;2.17;0.60;;;16.50;72.90;;;;;;6245402;23;19992;-80
2023/01/06 00:38:35;;;;;;;2.55;0.88;;;16.50;98.00;;;;;;6245196;23;20000;-80
2023/01/06 00:43:54;;;;;;;0.80;0.52;;;;;;;;;;6255249;23;20023;-80
2023/01/06 00:46:21;;;;;;;1.83;0.70;;;16.50;88.30;;;;;;6245282;23;20000;-80
2023/01/06 00:48:48;;;;;;;0.60;0.47;;;;;;;;;;6244606;23;19997;-81
2023/01/06 00:51:14;;;;;;;1.05;0.50;;;;;;;;;;6245237;23;20046;-81
2023/01/06 00:53:40;;;;;;;2.42;0.73;;;;;;;;;;6218281;23;20011;-80
2023/01/06 00:56:06;;;;;;;1.15;0.45;;;16.50;97.90;;;;;;6245469;23;20030;-80
2023/01/06 00:58:33;;;;;;;2.13;0.60;;;;;;;;;;6245514;23;20063;-80
2023/01/06 01:01:07;;;;;;;1.38;0.60;;;16.50;73.70;;;;;;6245266;23;20378;-80
2023/01/06 01:03:35;;;;;;;1.25;0.47;;;16.50;73.50;;;;;;6244983;23;20012;-80
2023/01/06 01:06:03;;;;;;;1.05;0.43;;;16.50;97.80;;;;;;6245180;23;20091;-80
2023/01/06 01:08:28;;;;;;;0.85;0.50;;;16.50;97.80;;;;;;6244625;23;20007;-81
2023/01/06 01:10:55;;;;;;;0.80;0.47;;;16.40;97.80;;;;;;6255552;23;20000;-80
2023/01/06 01:13:21;;;;;;;1.10;0.50;;;16.40;97.90;;;;;;6245228;23;19996;-81
2023/01/06 01:15:48;;;;;;;1.20;0.70;;;16.40;98.00;;;;;;6255116;23;20002;-80
2023/01/06 01:18:15;;;;;;;3.60;0.88;;;16.50;97.80;;;;;;6244493;23;20000;-81
2023/01/06 01:20:44;;;;;;;1.10;0.60;;;16.40;97.90;;;;;;6244445;23;20505;-80
2023/01/06 01:23:10;;;;;;;2.15;0.40;;;16.30;97.70;;;;;;6254937;23;20004;-80
2023/01/06 01:25:36;;;;;;;1.30;0.60;;;;;;;;;;6244471;23;19996;-80
2023/01/06 01:28:02;;;;;;;1.17;0.60;;;16.40;97.90;;;;;;6244531;23;20004;-80
2023/01/06 01:30:29;;;;;;;2.88;0.70;;;;;;;;;;6244892;23;20004;-80
2023/01/06 01:32:55;;;;;;;2.10;0.40;;;16.40;98.00;;;;;;6245121;23;20324;-80
2023/01/06 01:35:20;;;;;;;1.85;0.60;;;16.40;98.00;;;;;;6255112;23;19997;-80
2023/01/06 01:37:46;;;;;;;1.52;0.63;;;16.40;96.50;;;;;;6254899;23;19996;-81
2023/01/06 01:40:12;;;;;;;0.98;0.68;;;;;;;;;;6254745;23;20071;-80
2023/01/06 01:42:38;;;;;;;3.65;0.70;;;;;;;;;;6254604;23;19996;-80
2023/01/06 01:45:15;;;;;;;1.83;0.40;;;16.40;97.80;;;;;;6244817;23;20031;-80
2023/01/06 01:48:05;;;;;;;2.42;0.50;;;16.30;79.40;;;;;;6244417;23;20424;-80
2023/01/06 01:50:51;;;;;;;3.40;0.60;;;16.40;97.80;;;;;;6244629;23;20414;-80
2023/01/06 01:53:26;;;;;;;2.08;0.60;;;16.40;68.70;;;;;;6244347;23;20005;-81
2023/01/06 01:55:55;;;;;;;1.30;0.50;;;16.40;73.20;;;;;;6244341;23;19997;-81
2023/01/06 01:58:31;;;;;;;1.55;0.50;;;16.40;73.10;;;;;;6244996;23;20336;-81
2023/01/06 02:00:57;;;;;;;1.42;0.50;;;16.40;97.90;;;;;;6218188;23;19996;-81
2023/01/06 02:03:24;;;;;;;0.70;0.30;;;;;;;;;;6244496;23;20039;-80
2023/01/06 02:05:55;;;;;;;1.30;0.60;;;16.40;97.80;;;;;;6244911;23;20000;-81
2023/01/06 02:08:30;;;;;;;0.70;0.30;;;16.60;97.80;;;;;;6244598;23;20550;-81
2023/01/06 02:10:56;;;;;;;0.93;0.52;;;16.30;97.60;;;;;;6244627;23;20024;-81
2023/01/06 02:13:23;;;;;;;1.20;0.60;;;16.50;97.70;;;;;;6244943;23;20068;-80
2023/01/06 02:15:53;;;;;;;0.88;0.40;;;16.50;97.60;;;;;;6245202;23;20431;-80
2023/01/06 02:18:43;;;;;;;1.83;0.77;;;16.30;97.70;;;;;;6245173;23;20366;-80
2023/01/06 02:21:18;;;;;;;1.80;0.55;;;16.30;97.60;;;;;;6246778;23;19996;-80
2023/01/06 02:24:20;;;;;;;1.55;0.60;;;16.30;91.40;;;;;;6246801;23;20012;-81
2023/01/06 02:27:15;;;;;;;1.65;0.68;;;16.40;97.70;;;;;;6246588;23;20083;-80
2023/01/06 02:29:41;;;;;;;1.88;0.60;;;;;;;;;;6246851;23;19996;-80
2023/01/06 02:32:44;;;;;;;1.70;0.75;;;16.40;97.80;;;;;;6246778;23;20105;-80
2023/01/06 02:35:42;;;;;;;1.52;0.32;;;16.10;97.70;;;;;;6246789;23;20327;-80
2023/01/06 02:38:08;;;;;;;1.15;0.65;;;16.40;97.80;;;;;;6246750;23;20374;-80
2023/01/06 02:40:46;;;;;;;3.15;0.50;;;16.50;97.90;;;;;;6246315;23;20001;-80
2023/01/06 02:43:24;;;;;;;1.88;0.70;;;16.50;97.80;;;;;;6246026;23;20008;-80
2023/01/06 02:45:56;;;;;;;1.83;0.60;;;16.40;97.80;;;;;;6246737;23;20079;-80
2023/01/06 02:48:22;;;;;;;1.27;0.38;;;;;;;;;;6246587;23;20004;-80
2023/01/06 02:51:05;;;;;;;2.35;0.70;;;16.40;97.60;;;;;;6246061;23;19996;-80
2023/01/06 02:53:58;;;;;;;1.00;0.40;;;16.30;72.80;;;;;;6246502;23;20000;-80
2023/01/06 02:56:28;;;;;;;2.05;0.52;;;16.30;72.90;;;;;;6189775;23;20309;-70
2023/01/06 02:59:03;;;;;;;0.80;0.30;;;16.30;68.40;;;;;;6246310;23;20000;-70
2023/01/06 03:01:40;;;;;;;1.27;0.70;;;16.40;97.80;;;;;;6246076;23;19996;-70
2023/01/06 03:04:13;;;;;;;1.33;0.50;;;16.40;97.80;;;;;;6245624;23;20012;-70
2023/01/06 03:06:44;;;;;;;1.45;0.50;;;16.40;72.70;;;;;;6256495;23;20000;-70
2023/01/06 03:09:15;;;;;;;1.20;0.43;;;16.50;97.70;;;;;;6256003;23;19996;-70
2023/01/06 03:11:45;;;;;;;1.15;0.47;;;16.50;97.90;;;;;;6256018;23;20023;-70
2023/01/06 03:14:44;;;;;;;0.98;0.43;;;16.20;97.70;;;;;;6245734;23;19996;-70
2023/01/06 03:17:10;;;;;;;2.22;0.80;;;16.30;91.00;;;;;;6245856;23;20292;-70
2023/01/06 03:19:37;;;;;;;2.60;0.60;;;16.40;97.70;;;;;;6245523;23;20312;-70
2023/01/06 03:22:05;;;;;;;1.48;0.55;;;16.20;97.70;;;;;;6246014;23;19992;-70
2023/01/06 03:24:31;;;;;;;2.50;0.90;;;16.40;97.80;;;;;;6245529;23;20043;-70
2023/01/06 03:26:58;;;;;;;0.65;0.50;;;16.40;97.80;;;;;;6245761;23;19993;-70
2023/01/06 03:29:24;;;;;;;1.30;0.50;;;;;;;;;;6245977;23;20006;-69
2023/01/06 03:32:02;;;;;;;0.85;0.63;;;16.40;97.70;;;;;;6245592;23;20000;-70
2023/01/06 03:35:08;;;;;;;1.95;0.85;;;16.30;84.40;;;;;;6246000;23;20004;-70
2023/01/06 03:37:55;;;;;;;1.10;0.50;;;16.10;84.10;;;;;;6245503;23;20126;-69
2023/01/06 03:40:27;;;;;;;0.57;0.50;;;16.30;97.80;;;;;;6245717;23;20000;-70
2023/01/06 03:43:24;;;;;;;0.98;0.57;;;16.40;97.80;;;;;;6245398;23;20007;-69
2023/01/06 03:45:59;;;;;;;1.52;0.52;;;16.30;97.70;;;;;;6245583;23;20000;-70
2023/01/06 03:48:46;;;;;;;3.63;0.70;;;16.30;97.60;;;;;;6245450;23;19997;-70
2023/01/06 03:51:39;;;;;;;0.90;0.45;;;16.20;84.10;;;;;;6246046;23;20410;-70
2023/01/06 03:54:35;;;;;;;1.67;0.63;;;16.20;95.80;;;;;;6245626;23;20004;-70
2023/01/06 03:57:40;;;;;;;1.13;0.40;;;16.00;97.30;;;;;;6245474;23;20000;-70
2023/01/06 04:00:19;;;;;;;3.45;0.60;;;16.20;84.20;;;;;;6244725;23;20000;-70
2023/01/06 04:02:45;;;;;;;2.72;0.60;;;16.20;70.60;;;;;;6245018;23;20008;-70
2023/01/06 04:05:14;;;;;;;0.88;0.40;;;16.20;72.30;;;;;;6245571;23;20030;-70
2023/01/06 04:07:41;;;;;;;1.30;0.32;;;16.20;74.80;;;;;;6245256;23;19997;-70
2023/01/06 04:10:10;;;;;;;1.98;0.70;;;16.30;97.50;;;;;;6245232;23;20038;-70
2023/01/06 04:12:39;;;;;;;0.77;0.50;;;;;;;;;;6245261;23;20049;-70
2023/01/06 04:15:11;;;;;;;1.88;0.68;;;16.30;73.00;;;;;;6245602;23;20000;-69
2023/01/06 04:17:39;;;;;;;1.35;0.60;;;16.20;71.00;;;;;;6245677;23;20024;-70
2023/01/06 04:20:07;;;;;;;1.13;0.43;;;16.30;97.50;;;;;;6245565;23;20059;-70
2023/01/06 04:22:33;;;;;;;1.20;0.70;;;;;;;;;;6245479;23;20091;-70
2023/01/06 04:25:00;;;;;;;1.42;0.55;;;;;;;;;;6245492;23;20016;-70
2023/01/06 04:27:26;;;;;;;2.28;0.47;;;;;;;;;;6245553;23;20000;-70
2023/01/06 04:29:52;;;;;;;2.60;0.50;;;16.20;97.30;;;;;;6245389;23;20012;-70
2023/01/06 04:32:18;;;;;;;0.73;0.40;;;16.20;97.30;;;;;;6245408;23;20320;-70
2023/01/06 04:34:44;;;;;;;1.13;0.68;;;16.10;97.30;;;;;;6245355;23;20004;-70
2023/01/06 04:37:10;;;;;;;1.02;0.40;;;16.30;97.50;;;;;;6245456;23;20071;-70
2023/01/06 04:39:36;;;;;;;0.60;0.43;;;16.20;97.20;;;;;;6245358;23;20042;-70
2023/01/06 04:42:03;;;;;;;1.20;0.60;;;16.30;97.40;;;;;;6245478;23;20053;-70
2023/01/06 04:44:29;;;;;;;1.75;0.50;;;;;;;;;;6245337;23;20008;-69
2023/01/06 04:46:55;;;;;;;0.52;0.50;;;16.30;97.30;;;;;;6245379;23;20000;-69
2023/01/06 04:49:21;;;;;;;1.30;0.50;;;16.20;97.30;;;;;;6218211;23;20319;-70
2023/01/06 04:51:48;;;;;;;1.65;0.45;;;;;;;;;;6245210;23;19996;-70
2023/01/06 04:54:13;;;;;;;1.00;0.43;;;16.20;97.40;;;;;;6255028;23;20090;-70
2023/01/06 04:56:39;;;;;;;1.58;0.35;;;16.20;97.40;;;;;;6254910;23;19992;-70
2023/01/06 04:59:05;;;;;;;2.05;0.50;;;16.20;97.30;;;;;;6245310;23;20000;-70
2023/01/06 05:01:31;;;;;;;0.70;0.40;;;;;;;;;;6244936;23;20003;-70
2023/01/06 05:03:57;;;;;;;0.60;0.40;;;16.30;97.50;;;;;;6244917;23;20015;-70
2023/01/06 05:06:23;;;;;;;1.85;0.40;;;16.10;97.40;;;;;;6254971;23;20493;-70
2023/01/06 05:08:49;;;;;;;1.92;0.47;;;16.30;97.30;;;;;;6244851;23;20003;-70
2023/01/06 05:11:20;;;;;;;0.60;0.35;;;16.30;97.10;;;;;;6254547;23;19996;-70
2023/01/06 05:13:47;;;;;;;1.23;0.40;;;16.30;97.20;;;;;;6245080;23;20004;-70
2023/01/06 05:16:28;;;;;;;1.13;0.70;;;16.30;97.10;;;;;;6244727;23;20022;-70
2023/01/06 05:18:54;;;;;;;2.58;0.52;;;16.30;95.20;;;;;;6245165;23;20023;-70
2023/01/06 05:21:23;;;;;;;1.33;0.30;;;16.30;97.30;;;;;;6245381;23;20319;-70
2023/01/06 05:23:50;;;;;;;0.40;0.30;;;16.30;97.40;;;;;;6244894;23;20076;-69
2023/01/06 05:26:18;;;;;;;4.05;1.13;;;16.30;72.00;;;;;;6254707;23;20440;-69
2023/01/06 05:28:44;;;;;;;1.55;0.60;;;;;;;;;;6254670;23;19996;-70
2023/01/06 05:31:11;;;;;;;0.88;0.43;;;16.30;71.60;;;;;;6254597;23;20075;-70
2023/01/06 05:33:38;;;;;;;1.20;0.40;;;16.40;97.20;;;;;;6244704;23;19997;-69
2023/01/06 05:36:07;;;;;;;1.00;0.50;;;16.20;85.60;;;;;;6244948;23;20070;-69
2023/01/06 05:38:33;;;;;;;0.68;0.30;;;16.30;97.40;;;;;;6244646;23;20007;-70
2023/01/06 05:40:59;;;;;;;0.20;0.20;;;16.30;89.90;;;;;;6244936;23;20375;-69
2023/01/06 05:43:25;;;;;;;1.63;0.60;;;16.30;97.30;;;;;;6244483;23;20085;-70
2023/01/06 05:45:53;;;;;;;1.05;0.50;;;16.00;97.20;;;;;;6244878;23;20102;-69
2023/01/06 05:48:19;;;;;;;0.25;0.22;;;16.30;97.30;;;;;;6244500;23;20007;-70
2023/01/06 05:50:46;;;;;;;2.25;0.82;;;;;;;;;;6244978;23;19993;-70
2023/01/06 05:53:12;;;;;;;0.70;0.30;;;;;;;;;;6244978;23;20324;-70
2023/01/06 05:55:38;;;;;;;1.13;0.50;;;16.30;93.80;;;;;;6245816;23;20006;-70
2023/01/06 05:58:04;;;;;;;0.40;0.35;;;;;;;;;;6246851;23;20067;-69
2023/01/06 06:00:30;;;;;;;2.17;0.43;;;16.20;97.20;;;;;;6246732;23;20004;-70
2023/01/06 06:02:56;;;;;;;1.58;0.40;;;16.30;97.00;;;;;;6246118;23;20012;-70
2023/01/06 06:05:22;;;;;;;1.60;0.40;;;16.40;97.10;;;;;;6246968;23;19996;-70
2023/01/06 06:07:56;;;;;;;0.60;0.30;;;16.30;67.50;;;;;;6246772;23;20388;-70
2023/01/06 06:10:22;;;;;;;0.60;0.20;;;;;;;;;;6246753;23;20046;-70
2023/01/06 06:12:51;;;;;;;2.10;0.40;;;16.30;96.80;;;;;;6246388;23;20004;-70
2023/01/06 06:15:18;;;;;;;2.45;0.50;;;16.10;95.30;;;;;;6246754;23;20434;-70
2023/01/06 06:17:44;;;;;;;0.60;0.30;;;;;;;;;;6246361;23;20431;-70
2023/01/06 06:20:10;;;;;;;0.35;0.28;;;16.30;97.30;;;;;;6246553;23;20050;-70
2023/01/06 06:22:37;;;;;;;3.35;0.60;;;16.20;97.00;;;;;;6246780;23;19992;-69
2023/01/06 06:25:03;;;;;;;0.38;0.22;;;;;;;;;;6246403;23;20301;-70
2023/01/06 06:27:29;;;;;;;0.75;0.35;;;16.40;96.90;;;;;;6246473;23;20000;-69
2023/01/06 06:29:56;;;;;;;0.25;0.20;;;;;;;;;;6246912;23;20084;-69
2023/01/06 06:32:22;;;;;;;1.27;0.40;;;;;;;;;;6246801;23;20348;-70
2023/01/06 06:34:48;;;;;;;0.50;0.30;;;16.30;94.70;;;;;;6246678;23;20011;-70
2023/01/06 06:37:14;;;;;;;0.30;0.30;;;16.30;97.20;;;;;;6246667;23;20063;-70
2023/01/06 06:39:40;;;;;;;0.65;0.22;;;16.30;97.00;;;;;;6246404;23;20087;-70
2023/01/06 06:42:06;;;;;;;1.00;0.47;;;16.30;97.20;;;;;;6246442;23;20072;-69
2023/01/06 06:44:32;;;;;;;2.05;0.50;;;16.40;97.10;;;;;;6246461;23;20004;-69
2023/01/06 06:46:59;;;;;;;0.20;0.20;;;;;;;;;;6246084;23;20091;-70
2023/01/06 06:49:25;;;;;;;0.60;0.30;;;16.20;97.10;;;;;;6246337;23;20030;-70
2023/01/06 06:51:51;;;;;;;1.00;0.43;;;16.30;97.10;;;;;;6246431;23;19997;-69
2023/01/06 06:54:17;;;;;;;0.47;0.25;;;16.30;97.10;;;;;;6246287;23;20025;-70
2023/01/06 06:56:43;;;;;;;0.20;0.20;;;;;;;;;;6246171;23;20435;-80
2023/01/06 06:59:09;;;;;;;0.57;0.30;;;16.40;93.60;;;;;;6246098;23;20359;-80
2023/01/06 07:01:35;;;;;;;0.75;0.30;;;16.40;97.10;;;;;;6245507;23;19996;-80
2023/01/06 07:04:01;;;;;;;0.35;0.30;;;;;;;;;;6256056;23;20012;-80
2023/01/06 07:06:27;;;;;;;0.32;0.30;;;16.40;97.30;;;;;;6255288;23;20110;-80
2023/01/06 07:08:53;;;;;;;0.52;0.30;;;16.40;97.30;;;;;;6256175;23;20447;-80
2023/01/06 07:11:19;;;;;;;0.47;0.40;;;16.40;97.30;;;;;;6256044;23;20082;-80
2023/01/06 07:13:44;;;;;;;1.63;0.47;;;16.40;97.30;;;;;;6256362;23;20000;-80
2023/01/06 07:16:10;;;;;;;0.17;0.17;;;;;;;;;;6246260;23;20446;-80
2023/01/06 07:18:37;;;;;;;1.10;0.38;;;16.40;97.40;;;;;;6245855;23;20011;-83
2023/01/06 07:21:04;;;;;;;0.30;0.20;;;;;;;;;;6248757;23;20014;-81
2023/01/06 07:23:31;;;;;;;1.50;0.43;;;16.40;97.40;;;;;;6247981;23;20069;-82
2023/01/06 07:25:59;;;;;;;0.20;0.20;;;16.50;97.30;;;;;;6246138;23;19997;-84
2023/01/06 07:28:27;;;;;;;2.28;0.20;;;16.40;97.40;;;;;;6246189;23;19996;-83
2023/01/06 07:30:56;;;;;;;1.25;0.30;;;;;;;;;;6246185;23;19996;-76
2023/01/06 07:33:23;;;;;;;0.35;0.20;;;;;;;;;;6229703;23;20008;-80
2023/01/06 07:35:53;;;;;;;0.60;0.32;;;16.40;97.40;;;;;;6247225;23;20008;-79
2023/01/06 07:38:20;;;;;;;0.47;0.47;;;16.10;97.20;;;;;;6219308;23;20011;-78
2023/01/06 07:40:46;;;;;;;0.38;0.32;;;;;;;;;;6219387;23;20004;-78
2023/01/06 07:43:12;;;;;;;1.30;0.28;;;16.30;97.20;;;;;;6219095;23;20083;-81
2023/01/06 07:45:39;;;;;;;0.75;0.40;;;16.40;97.20;;;;;;6219397;23;20008;-82
2023/01/06 07:48:05;;;;;;;1.00;0.30;;;16.50;97.10;;;;;;6246127;23;19993;-80
2023/01/06 07:50:30;;;;;;;0.80;0.40;;;16.70;97.20;;;;;;6246004;23;20327;-69
2023/01/06 07:52:58;;;;;;;0.73;0.30;;;16.40;83.20;;;;;;6245931;23;19992;-68
2023/01/06 07:55:24;;;;;;;0.60;0.50;;;16.50;73.80;;;;;;6245674;23;20000;-68
2023/01/06 07:57:51;;;;;;;3.67;0.40;;;;;;;;;;6245679;23;19996;-69
2023/01/06 08:00:17;;;;;;;1.08;0.40;;;16.50;85.80;;;;;;6251022;23;20032;-68
2023/01/06 08:02:43;;;;;;;1.15;0.40;;;16.50;97.20;;;;;;6246057;23;20008;-67
2023/01/06 08:05:09;;;;;;;0.85;0.28;;;16.40;97.00;;;;;;6245612;23;20008;-67
2023/01/06 08:07:35;;;;;;;1.00;0.50;;;16.40;97.10;;;;;;6245677;23;20067;-68
2023/01/06 08:10:01;;;;;;;1.50;0.50;;;16.20;96.90;;;;;;6245321;23;20501;-75
2023/01/06 08:12:27;;;;;;;2.17;0.50;;;16.40;97.00;;;;;;6245519;23;19996;-75
2023/01/06 08:14:53;;;;;;;2.47;0.70;;;16.50;97.10;;;;;;6245165;23;20003;-75
2023/01/06 08:17:19;;;;;;;2.15;0.47;;;16.40;97.20;;;;;;6255405;23;19997;-75
2023/01/06 08:19:44;;;;;;;2.15;0.50;;;16.20;97.20;;;;;;6255696;23;20004;-75
2023/01/06 08:22:10;;;;;;;6.13;0.90;;;16.50;86.30;;;;;;6255460;23;19999;-78
2023/01/06 08:24:36;;;;;;;3.75;0.80;;;;;;;;;;6255268;23;20331;-78
2023/01/06 08:27:02;;;;;;;6.32;0.88;;;;;;;;;;6246424;23;20023;-78
2023/01/06 08:29:28;;;;;;;1.48;0.50;;;;;;;;;;6261596;23;20450;-77
2023/01/06 08:31:55;;;;;;;3.03;0.70;;;16.40;93.50;;;;;;6244980;23;20028;-79
2023/01/06 08:34:24;;;;;;;2.55;0.65;;;;;;;;;;6219595;23;20071;-77
2023/01/06 08:36:51;;;;;;;3.70;1.17;;;16.50;97.40;;;;;;6246150;23;20007;-78
2023/01/06 08:39:17;;;;;;;2.03;0.57;;;16.50;97.40;;;;;;6244915;23;20008;-77
2023/01/06 08:41:43;;;;;;;5.30;1.05;;;16.40;97.40;;;;;;6255233;23;19995;-77
2023/01/06 08:44:09;;;;;;;4.85;0.68;;;16.50;97.00;;;;;;6255156;23;20134;-77
2023/01/06 08:46:34;;;;;;;1.70;0.63;;;16.50;97.50;;;;;;6245359;23;20018;-77
2023/01/06 08:49:00;;;;;;;2.45;0.77;;;16.40;97.40;;;;;;6245379;23;20371;-77
2023/01/06 08:51:27;;;;;;;1.05;0.65;;;16.40;97.30;;;;;;6245161;23;19996;-77
2023/01/06 08:53:53;;;;;;;5.07;0.88;;;16.50;97.50;;;;;;6244943;23;20053;-77
2023/01/06 08:56:31;;;;;;;3.88;0.80;;;16.40;72.50;;;;;;6244988;23;20435;-77
2023/01/06 08:59:02;;;;;;;5.45;0.82;;;16.40;97.50;;;;;;6245377;23;20324;-77
2023/01/06 09:01:34;;;;;;;2.03;0.38;;;16.40;78.80;;;;;;6254920;23;20034;-76
2023/01/06 09:04:01;;;;;;;2.58;0.70;;;16.40;97.60;;;;;;6255088;23;20011;-77
2023/01/06 09:06:27;;;;;;;2.92;0.60;;;16.10;97.50;;;;;;6244843;23;19992;-78
2023/01/06 09:08:55;;;;;;;4.47;0.77;;;16.40;97.50;;;;;;6245041;23;20459;-77
2023/01/06 09:11:22;;;;;;;4.00;0.80;;;16.40;71.80;;;;;;6244744;23;19993;-77
2023/01/06 09:13:49;;;;;;;4.40;1.17;;;;;;;;;;6244889;23;20004;-77
2023/01/06 09:16:16;;;;;;;2.28;0.63;;;16.40;97.50;;;;;;6244827;23;20476;-77
2023/01/06 09:18:49;;;;;;;3.63;0.98;;;16.40;75.00;;;;;;6246014;23;20000;-76
2023/01/06 09:21:20;;;;;;;5.20;1.10;;;16.50;97.40;;;;;;6245091;23;20440;-77
2023/01/06 09:23:47;;;;;;;3.13;0.77;;;16.50;70.40;;;;;;6245379;23;20074;-76
2023/01/06 09:26:14;;;;;;;8.30;1.02;;;16.40;97.30;;;;;;6255076;23;19996;-74
2023/01/06 09:28:40;;;;;;;7.65;1.23;;;16.40;97.30;;;;;;6255629;23;20014;-77
2023/01/06 09:31:06;;;;;;;5.47;1.30;;;16.40;71.00;;;;;;6249461;23;20075;-74
2023/01/06 09:33:32;;;;;;;10.18;1.77;;;16.40;97.00;;;;;;6245869;23;20000;-76
2023/01/06 09:35:59;;;;;;;6.88;1.25;;;;;;;;;;6246108;23;19996;-79
2023/01/06 09:38:26;;;;;;;4.35;1.50;;;16.20;96.90;;;;;;6256470;23;19997;-79
2023/01/06 09:41:03;;;;;;;3.80;0.98;;;16.20;97.00;;;;;;6246464;23;20039;-70
2023/01/06 09:43:29;;;;;;;3.63;1.40;;;16.40;97.10;;;;;;6245271;23;20476;-68
2023/01/06 09:46:00;;;;;;;17.88;1.70;;;16.30;97.30;;;;;;6245091;23;20016;-68
2023/01/06 09:48:31;;;;;;;8.98;1.48;;;16.40;91.70;;;;;;6245099;23;20067;-68
2023/01/06 09:51:02;;;;;;;6.45;1.02;;;16.40;97.30;;;;;;6245095;23;20003;-70
2023/01/06 09:53:33;;;;;;;5.88;1.10;;;16.40;83.60;;;;;;6245059;23;20341;-68
2023/01/06 09:56:03;;;;;;;2.20;1.10;;;16.20;97.10;;;;;;6244949;23;20004;-68
2023/01/06 09:58:35;;;;;;;3.40;0.87;;;16.30;97.00;;;;;;6244797;23;20055;-68
2023/01/06 10:01:06;;;;;;;4.72;0.82;;;16.40;97.10;;;;;;6245000;23;20008;-70
2023/01/06 10:03:33;;;;;;;3.80;1.10;;;;;;;;;;6244373;23;20008;-69
2023/01/06 10:06:30;;;;;;;2.63;0.73;;;16.60;96.80;;;;;;6254811;23;20530;-71
2023/01/06 10:09:07;;;;;;;5.18;1.10;;;16.50;66.70;;;;;;6254727;23;20071;-68
2023/01/06 10:11:32;;;;;;;1.60;0.65;;;16.60;96.90;;;;;;6254850;23;20046;-68
2023/01/06 10:13:58;;;;;;;4.32;1.00;;;;;;;;;;6254655;23;20004;-70
2023/01/06 10:16:42;;;;;;;4.47;0.82;;;15.90;66.40;;;;;;6254841;23;20114;-69
2023/01/06 10:19:35;;;;;;;5.70;0.93;;;16.60;96.90;;;;;;6244870;23;20313;-68
2023/01/06 10:22:07;;;;;;;4.25;1.25;;;16.80;97.00;;;;;;6244886;23;20327;-68
2023/01/06 10:24:44;;;;;;;1.45;0.70;;;16.90;96.90;;;;;;6254756;23;20015;-68
2023/01/06 10:27:45;;;;;;;3.13;1.00;;;16.80;66.40;;;;;;6254540;23;19996;-71
2023/01/06 10:30:21;;;;;;;4.50;0.80;;;16.70;96.60;;;;;;6244796;23;20059;-69
2023/01/06 10:32:49;;;;;;;4.00;1.27;;;17.00;96.80;;;;;;6244861;23;20000;-69
2023/01/06 10:35:17;;;;;;;2.58;0.60;;;17.10;96.50;;;;;;6254695;23;20002;-69
2023/01/06 10:37:46;;;;;;;2.22;0.70;;;17.20;96.70;;;;;;6244463;23;20425;-69
2023/01/06 10:40:20;;;;;;;2.88;0.82;;;17.20;80.20;;;;;;6244737;23;20381;-70
2023/01/06 10:43:02;;;;;;;1.48;0.70;;;17.30;96.40;;;;;;6246644;23;19997;-69
2023/01/06 10:45:31;;;;;;;5.10;0.90;;;17.10;79.90;;;;;;6246628;23;20039;-70
2023/01/06 10:47:59;;;;;;;3.30;0.80;;;17.00;96.30;;;;;;6246130;23;20016;-70
2023/01/06 10:50:26;;;;;;;3.40;0.85;;;17.60;96.20;;;;;;6246150;23;20063;-70
2023/01/06 10:52:53;;;;;;;1.92;0.80;;;17.30;74.40;;;;;;6246553;23;19992;-70
2023/01/06 10:55:38;;;;;;;3.08;0.88;;;17.40;96.30;;;;;;6246500;23;20331;-70
2023/01/06 10:58:30;;;;;;;2.10;0.55;;;17.50;64.90;;;;;;6246083;23;20075;-70
2023/01/06 11:01:09;;;;;;;2.00;0.88;;;17.50;71.60;;;;;;6240706;23;19996;-70
2023/01/06 11:03:35;;;;;;;2.63;0.65;;;17.20;96.00;;;;;;6245497;23;20451;-69
2023/01/06 11:06:23;;;;;;;2.20;1.00;;;17.50;64.90;;;;;;6246323;23;20042;-71
2023/01/06 11:08:49;;;;;;;3.25;0.50;;;;;;;;;;6246304;23;20034;-72
2023/01/06 11:11:18;;;;;;;2.72;0.70;;;17.70;95.90;;;;;;6246368;23;20007;-70
2023/01/06 11:13:56;;;;;;;3.72;0.70;;;17.70;87.10;;;;;;6246425;23;20328;-69
2023/01/06 11:16:35;;;;;;;4.20;0.77;;;17.90;95.80;;;;;;6246336;23;20344;-68
2023/01/06 11:19:06;;;;;;;2.45;0.75;;;18.00;95.80;;;;;;6246285;23;20007;-69
2023/01/06 11:21:50;;;;;;;2.17;0.60;;;17.90;95.70;;;;;;6246291;23;20006;-69
2023/01/06 11:24:23;;;;;;;2.22;0.80;;;18.00;95.50;;;;;;6246075;23;20079;-69
2023/01/06 11:26:57;;;;;;;4.78;0.50;;;17.90;71.30;;;;;;6256012;23;20027;-69
2023/01/06 11:29:34;;;;;;;1.02;0.35;;;18.00;95.70;;;;;;6256055;23;19996;-69
2023/01/06 11:32:20;;;;;;;4.13;0.80;;;17.90;64.20;;;;;;6256055;23;19996;-68
2023/01/06 11:34:55;;;;;;;2.10;0.60;;;17.90;73.10;;;;;;6256081;23;19996;-69
2023/01/06 11:37:30;;;;;;;2.17;0.52;;;18.00;95.70;;;;;;6255950;23;20470;-71
2023/01/06 11:39:56;;;;;;;3.22;0.65;;;17.80;95.60;;;;;;6255959;23;20035;-70
2023/01/06 11:42:21;;;;;;;2.40;0.60;;;18.00;95.70;;;;;;6255800;23;19992;-70
2023/01/06 11:44:47;;;;;;;2.97;0.73;;;17.70;95.60;;;;;;6255937;23;20498;-70
2023/01/06 11:47:21;;;;;;;2.13;0.50;;;17.80;95.40;;;;;;6255874;23;19999;-72
2023/01/06 11:49:47;;;;;;;4.05;0.88;;;17.80;95.30;;;;;;6245876;23;20462;-71
2023/01/06 11:52:18;;;;;;;1.48;0.43;;;18.20;95.30;;;;;;6255388;23;19993;-71
2023/01/06 11:54:45;;;;;;;2.35;0.93;;;;;;;;;;6218751;23;20004;-70
2023/01/06 11:57:49;;;;;;;3.13;0.60;;;17.90;62.80;;;;;;6255698;23;19992;-71
2023/01/06 12:00:23;;;;;;;3.25;0.60;;;18.20;95.20;;;;;;6230160;23;20054;-71
2023/01/06 12:02:57;;;;;;;5.07;0.75;;;18.30;66.80;;;;;;6255378;23;20036;-71
2023/01/06 12:05:38;;;;;;;5.28;1.20;;;18.50;94.20;;;;;;6244320;23;20016;-71
2023/01/06 12:08:19;;;;;;;2.63;0.77;;;18.30;65.90;;;;;;6245579;23;20431;-71
2023/01/06 12:10:51;;;;;;;1.67;0.60;;;18.60;94.70;;;;;;6245820;23;20004;-71
2023/01/06 12:13:17;;;;;;;1.73;0.60;;;18.40;94.40;;;;;;6245598;23;20000;-71
2023/01/06 12:15:46;;;;;;;1.75;0.68;;;18.70;94.50;;;;;;6255412;23;20019;-71
2023/01/06 12:18:20;;;;;;;3.90;0.80;;;18.70;66.10;;;;;;6255325;23;20024;-71
2023/01/06 12:20:51;;;;;;;4.35;0.82;;;18.80;94.50;;;;;;6245210;23;19992;-71
2023/01/06 12:23:23;;;;;;;;;;;18.70;66.50;;;;;;6245854;23;20054;-71
2023/01/06 12:25:53;;;;;;;2.22;0.70;;;18.60;94.30;;;;;;6245164;23;19903;-71
2023/01/06 12:28:36;;;;;;;1.33;0.82;;;19.00;61.40;;;;;;6245259;23;20007;-71
2023/01/06 12:31:09;;;;;;;0.82;0.43;;;18.70;77.50;;;;;;6245427;23;20020;-72
2023/01/06 12:34:00;;;;;;;1.73;0.80;;;19.00;94.00;;;;;;6245237;23;20023;-72
2023/01/06 12:36:52;;;;;;;2.40;0.52;;;18.90;93.80;;;;;;6244930;23;20067;-72
2023/01/06 12:39:45;;;;;;;3.85;0.93;;;19.00;60.50;;;;;;6245121;23;20085;-71
2023/01/06 12:42:46;;;;;;;2.38;0.70;;;19.20;94.00;;;;;;6245324;23;20071;-72
2023/01/06 12:45:18;;;;;;;2.10;0.80;;;19.10;60.40;;;;;;6198487;23;20004;-72
2023/01/06 12:47:54;;;;;;;1.88;0.73;;;19.20;93.80;;;;;;6244619;23;20010;-72
2023/01/06 12:50:34;;;;;;;2.33;0.60;;;19.10;75.10;;;;;;6245053;23;20000;-72
2023/01/06 12:53:14;;;;;;;0.77;0.35;;;19.30;93.90;;;;;;6245443;23;20004;-69
2023/01/06 12:56:02;;;;;;;1.10;0.50;;;19.40;66.60;;;;;;6245161;23;19996;-70
2023/01/06 12:58:54;;;;;;;2.20;0.80;;;19.40;93.90;;;;;;6244969;23;20001;-74
2023/01/06 13:01:42;;;;;;;0.93;0.55;;;19.40;93.90;;;;;;6244602;23;20079;-69
2023/01/06 13:04:46;;;;;;;2.45;0.70;;;19.50;93.60;;;;;;6212603;23;20021;-73
2023/01/06 13:07:30;;;;;;;2.45;0.82;;;19.40;93.80;;;;;;6224189;23;20001;-75
2023/01/06 13:10:06;;;;;;;1.58;0.82;;;19.30;64.30;;;;;;6224266;23;19992;-78
2023/01/06 13:12:56;;;;;;;5.07;0.77;;;18.20;63.50;;;;;;6214393;23;20047;-76
2023/01/06 13:15:28;;;;;;;2.85;0.68;;;19.40;93.60;;;;;;6215001;23;20360;-77
2023/01/06 13:18:14;;;;;;;1.88;0.40;;;19.60;59.50;;;;;;6214565;23;20008;-78
2023/01/06 13:20:47;;;;;;;1.95;0.60;;;19.40;63.30;;;;;;6214706;23;20328;-77
2023/01/06 13:23:27;;;;;;;2.15;0.52;;;19.80;80.50;;;;;;6214400;23;20416;-78
2023/01/06 13:26:34;;;;;;;2.38;0.50;;;19.80;93.40;;;;;;6214567;23;20004;-78
2023/01/06 13:29:35;;;;;;;2.53;0.63;;;17.80;58.30;;;;;;6214158;23;20016;-78